Time;durP1;ratioP1;P1;durP2;ratioP2;P2;SDS_P1;SDS_P2;PMS_P1;PMS_P2;Temp;Humidity;BMP_temperature;BMP_pressure;BME280_temperature;BME280_humidity;BME280_pressure;Samples;Min_cycle;Max_cycle;Signal;HPM_P1;HPM_P2
2022/05/03 00:02:26;;;;;;;9.02;5.72;;;8.50;99.90;;;;;;4996507;28;20034;-80
2022/05/03 00:05:19;;;;;;;9.00;5.60;;;8.40;99.90;;;;;;4991229;28;20114;-82
2022/05/03 00:08:06;;;;;;;7.60;6.35;;;8.40;99.90;;;;;;4993241;28;20368;-81
2022/05/03 00:10:57;;;;;;;9.52;6.50;;;8.50;99.90;;;;;;4990019;28;20026;-81
2022/05/03 00:13:29;;;;;;;7.88;5.63;;;8.40;99.90;;;;;;4986947;28;20088;-79
2022/05/03 00:15:57;;;;;;;7.82;5.70;;;8.40;99.90;;;;;;4967694;28;20034;-80
2022/05/03 00:18:23;;;;;;;10.27;6.63;;;8.40;99.90;;;;;;4972878;28;20129;-79
2022/05/03 00:20:50;;;;;;;7.80;6.20;;;8.40;99.90;;;;;;4968861;28;20063;-80
2022/05/03 00:23:16;;;;;;;7.85;5.85;;;8.40;99.90;;;;;;4978451;28;20054;-81
2022/05/03 00:25:42;;;;;;;12.57;6.88;;;8.30;99.90;;;;;;4985135;28;20510;-82
2022/05/03 00:28:08;;;;;;;11.45;6.75;;;8.20;99.90;;;;;;4970032;28;20448;-82
2022/05/03 00:30:36;;;;;;;9.32;6.03;;;8.00;99.90;;;;;;4972271;28;20030;-80
2022/05/03 00:33:04;;;;;;;8.68;6.25;;;8.00;99.90;;;;;;4967767;28;20030;-78
2022/05/03 00:35:31;;;;;;;7.97;6.43;;;8.00;99.90;;;;;;4969631;28;20407;-81
2022/05/03 00:37:57;;;;;;;7.78;6.40;;;8.20;99.90;;;;;;4968350;28;20027;-79
2022/05/03 00:40:24;;;;;;;7.85;5.95;;;8.20;99.90;;;;;;4968723;28;20035;-81
2022/05/03 00:42:52;;;;;;;9.13;6.38;;;8.20;99.90;;;;;;4966152;28;20050;-79
2022/05/03 00:45:38;;;;;;;7.57;5.82;;;8.10;99.90;;;;;;4968221;28;20488;-81
2022/05/03 00:48:23;;;;;;;10.68;7.20;;;8.00;99.90;;;;;;4979113;28;20122;-82
2022/05/03 00:51:25;;;;;;;11.65;7.10;;;7.90;99.90;;;;;;4979209;28;20030;-83
2022/05/03 00:54:13;;;;;;;9.82;6.82;;;7.90;99.90;;;;;;4972275;28;20030;-81
2022/05/03 00:57:17;;;;;;;9.10;6.50;;;7.80;99.90;;;;;;4971481;28;20026;-81
2022/05/03 01:00:05;;;;;;;8.55;6.75;;;7.70;99.90;;;;;;4967639;28;20035;-82
2022/05/03 01:02:48;;;;;;;8.73;6.38;;;7.70;99.90;;;;;;4982696;28;20031;-81
2022/05/03 01:05:19;;;;;;;10.13;6.57;;;7.60;99.90;;;;;;4973375;28;20038;-81
2022/05/03 01:07:51;;;;;;;10.10;7.10;;;7.60;99.90;;;;;;4983374;28;20491;-80
2022/05/03 01:10:33;;;;;;;9.45;6.07;;;7.60;99.90;;;;;;4972198;28;20031;-81
2022/05/03 01:13:24;;;;;;;8.93;5.63;;;7.60;99.90;;;;;;4974527;28;20469;-80
2022/05/03 01:16:02;;;;;;;11.73;8.13;;;7.40;99.90;;;;;;4956317;28;20045;-79
2022/05/03 01:18:44;;;;;;;12.88;6.20;;;7.40;99.90;;;;;;4954135;28;20118;-79
2022/05/03 01:21:27;;;;;;;9.13;7.25;;;7.40;99.90;;;;;;4953303;28;20051;-80
2022/05/03 01:24:32;;;;;;;13.90;7.55;;;7.40;99.90;;;;;;4956520;29;20050;-79
2022/05/03 01:27:12;;;;;;;9.40;6.95;;;7.40;99.90;;;;;;4972788;28;20030;-80
2022/05/03 01:29:40;;;;;;;10.50;6.60;;;7.40;99.90;;;;;;4969421;28;20055;-80
2022/05/03 01:32:08;;;;;;;8.77;6.68;;;7.40;99.90;;;;;;4965954;28;20062;-79
2022/05/03 01:34:35;;;;;;;10.65;7.43;;;7.40;99.90;;;;;;4954208;28;20503;-80
2022/05/03 01:37:00;;;;;;;10.52;7.60;;;7.40;99.90;;;;;;4971107;28;20047;-79
2022/05/03 01:39:55;;;;;;;10.50;7.43;;;7.40;99.90;;;;;;4953590;29;20123;-82
2022/05/03 01:42:58;;;;;;;13.80;7.70;;;7.30;99.90;;;;;;4953371;28;20403;-79
2022/05/03 01:45:53;;;;;;;12.98;7.72;;;7.20;99.90;;;;;;4971526;28;20082;-79
2022/05/03 01:48:25;;;;;;;12.18;8.15;;;7.20;99.90;;;;;;4955080;28;20027;-82
2022/05/03 01:51:17;;;;;;;12.30;7.60;;;7.20;99.90;;;;;;4973652;28;20051;-80
2022/05/03 01:53:52;;;;;;;10.98;7.32;;;7.20;99.90;;;;;;4974150;28;20027;-83
2022/05/03 01:56:49;;;;;;;11.27;7.53;;;7.10;99.90;;;;;;4953196;28;20038;-80
2022/05/03 01:59:29;;;;;;;13.63;7.72;;;7.10;99.90;;;;;;4954106;28;20045;-79
2022/05/03 02:01:59;;;;;;;11.10;7.50;;;7.10;99.90;;;;;;4952332;28;20054;-79
2022/05/03 02:04:48;;;;;;;12.95;7.35;;;7.20;99.90;;;;;;4954245;28;20035;-80
2022/05/03 02:07:44;;;;;;;10.95;7.45;;;7.20;99.90;;;;;;4968833;28;20027;-80
2022/05/03 02:10:47;;;;;;;11.90;7.43;;;7.20;99.90;;;;;;4952585;28;20539;-80
2022/05/03 02:13:19;;;;;;;13.57;7.90;;;7.10;99.90;;;;;;4968717;28;20481;-80
2022/05/03 02:15:50;;;;;;;15.52;8.57;;;7.00;99.90;;;;;;4978487;28;20137;-76
2022/05/03 02:18:23;;;;;;;12.18;8.50;;;7.00;99.90;;;;;;4970465;28;20027;-75
2022/05/03 02:21:13;;;;;;;10.95;7.85;;;7.00;99.90;;;;;;4954360;28;20460;-76
2022/05/03 02:24:05;;;;;;;14.10;7.78;;;7.00;99.90;;;;;;4955902;28;20416;-75
2022/05/03 02:27:04;;;;;;;11.52;7.75;;;7.00;99.90;;;;;;4957235;28;20082;-76
2022/05/03 02:29:46;;;;;;;17.27;8.50;;;6.90;99.90;;;;;;4954133;28;20384;-75
2022/05/03 02:32:16;;;;;;;14.32;8.88;;;6.90;99.90;;;;;;4956400;28;20031;-76
2022/05/03 02:34:53;;;;;;;10.82;7.32;;;6.90;99.90;;;;;;4957702;28;20155;-76
2022/05/03 02:37:23;;;;;;;15.43;7.88;;;6.80;99.90;;;;;;4957130;28;20523;-76
2022/05/03 02:40:00;;;;;;;12.45;8.40;;;6.80;99.90;;;;;;4972310;28;20047;-75
2022/05/03 02:42:26;;;;;;;13.32;8.40;;;6.70;99.90;;;;;;4956696;28;20043;-75
2022/05/03 02:44:55;;;;;;;14.48;8.82;;;6.70;99.90;;;;;;4957657;28;20034;-76
2022/05/03 02:47:49;;;;;;;13.48;8.35;;;6.70;99.90;;;;;;4956873;28;20256;-75
2022/05/03 02:50:20;;;;;;;14.50;9.25;;;6.60;99.90;;;;;;4954150;29;20122;-76
2022/05/03 02:53:08;;;;;;;11.18;8.20;;;6.60;99.90;;;;;;4973422;28;20085;-76
2022/05/03 02:55:49;;;;;;;13.00;8.73;;;6.50;99.90;;;;;;4959071;28;20042;-75
2022/05/03 02:58:40;;;;;;;11.95;7.70;;;6.40;99.90;;;;;;4957099;28;20459;-76
2022/05/03 03:01:49;;;;;;;11.43;7.55;;;6.40;99.90;;;;;;4959434;28;20035;-76
2022/05/03 03:04:44;;;;;;;8.60;6.73;;;6.30;99.90;;;;;;4959867;29;20488;-76
2022/05/03 03:07:16;;;;;;;13.00;7.95;;;6.30;99.90;;;;;;4954278;29;20054;-75
2022/05/03 03:10:04;;;;;;;11.02;7.90;;;6.30;99.90;;;;;;4953175;28;20086;-75
2022/05/03 03:12:56;;;;;;;12.30;8.57;;;6.30;99.90;;;;;;4969599;28;20023;-76
2022/05/03 03:15:28;;;;;;;15.75;8.13;;;6.30;99.90;;;;;;4954785;28;20519;-75
2022/05/03 03:17:57;;;;;;;15.75;9.02;;;6.20;99.90;;;;;;4969568;28;20523;-75
2022/05/03 03:20:25;;;;;;;16.00;9.82;;;6.20;99.90;;;;;;4954560;28;20126;-76
2022/05/03 03:22:51;;;;;;;18.33;9.85;;;6.10;99.90;;;;;;4955038;28;20019;-75
2022/05/03 03:25:21;;;;;;;14.88;8.80;;;6.10;99.90;;;;;;4954587;28;20031;-76
2022/05/03 03:27:49;;;;;;;15.20;9.70;;;6.10;99.90;;;;;;4969238;28;20493;-76
2022/05/03 03:30:16;;;;;;;18.52;10.35;;;6.10;99.90;;;;;;4969416;28;20032;-75
2022/05/03 03:32:52;;;;;;;19.70;10.00;;;6.10;99.90;;;;;;4968614;28;20031;-75
2022/05/03 03:35:20;;;;;;;15.32;9.57;;;6.10;99.90;;;;;;4953753;28;20019;-75
2022/05/03 03:37:48;;;;;;;18.45;11.90;;;6.10;99.90;;;;;;4953350;28;20027;-75
2022/05/03 03:40:15;;;;;;;15.95;10.18;;;6.00;99.90;;;;;;4953600;28;20035;-75
2022/05/03 03:42:43;;;;;;;15.80;9.60;;;5.90;99.90;;;;;;4953412;28;20515;-76
2022/05/03 03:45:14;;;;;;;14.65;9.95;;;5.90;99.90;;;;;;4968325;28;20035;-74
2022/05/03 03:47:41;;;;;;;18.35;9.88;;;5.80;99.90;;;;;;4967972;28;20412;-75
2022/05/03 03:50:08;;;;;;;15.32;9.00;;;5.70;99.90;;;;;;4952864;28;20034;-75
2022/05/03 03:52:37;;;;;;;14.75;9.65;;;5.70;99.90;;;;;;4952864;28;20052;-75
2022/05/03 03:55:03;;;;;;;18.42;10.05;;;5.70;99.90;;;;;;4967425;28;20046;-75
2022/05/03 03:57:31;;;;;;;17.02;9.98;;;5.70;99.90;;;;;;4951278;28;20114;-75
2022/05/03 03:59:58;;;;;;;17.73;11.27;;;5.60;99.90;;;;;;4951644;28;20476;-75
2022/05/03 04:02:26;;;;;;;13.18;9.25;;;5.60;99.90;;;;;;4966319;28;20492;-75
2022/05/03 04:04:54;;;;;;;15.88;9.40;;;5.60;99.90;;;;;;4951839;28;20367;-75
2022/05/03 04:07:19;;;;;;;18.55;9.60;;;5.50;99.90;;;;;;4951760;29;20025;-75
2022/05/03 04:09:45;;;;;;;22.65;9.60;;;5.50;99.90;;;;;;4952037;28;20099;-75
2022/05/03 04:12:12;;;;;;;13.80;9.00;;;5.40;99.90;;;;;;4953362;28;20523;-75
2022/05/03 04:14:37;;;;;;;19.35;10.32;;;5.50;99.90;;;;;;4952376;28;20035;-75
2022/05/03 04:17:03;;;;;;;17.33;11.05;;;5.50;99.90;;;;;;4953243;28;20034;-75
2022/05/03 04:19:29;;;;;;;18.08;10.63;;;5.60;99.90;;;;;;4967781;28;20099;-76
2022/05/03 04:21:55;;;;;;;20.48;10.95;;;5.70;99.90;;;;;;4953617;28;20023;-75
2022/05/03 04:24:21;;;;;;;18.58;11.02;;;5.60;99.90;;;;;;4953896;28;20038;-75
2022/05/03 04:26:47;;;;;;;20.70;11.98;;;5.70;99.90;;;;;;4953702;28;20043;-75
2022/05/03 04:29:14;;;;;;;20.83;11.52;;;5.70;99.90;;;;;;4969796;28;20244;-75
2022/05/03 04:31:41;;;;;;;19.52;11.65;;;5.70;99.90;;;;;;4955041;28;20443;-75
2022/05/03 04:34:06;;;;;;;25.08;12.98;;;5.70;99.90;;;;;;4956127;28;20069;-76
2022/05/03 04:36:33;;;;;;;24.95;13.30;;;5.80;99.90;;;;;;4960597;28;20078;-75
2022/05/03 04:39:03;;;;;;;28.05;14.25;;;6.10;99.90;;;;;;4974294;28;20170;-76
2022/05/03 04:41:30;;;;;;;22.85;12.00;;;6.20;99.90;;;;;;4958275;28;20019;-75
2022/05/03 04:43:56;;;;;;;19.48;12.38;;;6.30;99.90;;;;;;4958177;28;20031;-75
2022/05/03 04:46:21;;;;;;;22.20;12.70;;;6.20;99.90;;;;;;4958504;28;20082;-76
2022/05/03 04:48:47;;;;;;;21.33;12.35;;;6.20;99.90;;;;;;4959469;28;20023;-76
2022/05/03 04:51:23;;;;;;;24.80;13.65;;;6.20;99.90;;;;;;4959856;28;20031;-76
2022/05/03 04:53:50;;;;;;;21.15;11.82;;;6.30;99.90;;;;;;4974973;28;20033;-76
2022/05/03 04:56:24;;;;;;;23.65;11.95;;;6.30;99.90;;;;;;4974510;28;20035;-76
2022/05/03 04:58:55;;;;;;;22.67;13.57;;;6.30;99.90;;;;;;4969805;28;20019;-76
2022/05/03 05:01:21;;;;;;;25.33;13.73;;;6.30;99.90;;;;;;4974308;28;20436;-76
2022/05/03 05:03:46;;;;;;;21.70;12.82;;;6.40;99.90;;;;;;4973335;28;20029;-76
2022/05/03 05:06:12;;;;;;;20.33;13.02;;;6.50;99.90;;;;;;4972755;28;20470;-76
2022/05/03 05:08:39;;;;;;;20.40;11.82;;;6.60;99.90;;;;;;4972639;28;20024;-76
2022/05/03 05:11:05;;;;;;;18.80;10.73;;;6.70;99.90;;;;;;4957871;28;20020;-76
2022/05/03 05:13:32;;;;;;;19.42;11.40;;;6.70;99.90;;;;;;4957728;28;20023;-75
2022/05/03 05:15:58;;;;;;;21.13;11.80;;;6.80;99.90;;;;;;4961593;28;20158;-76
2022/05/03 05:18:24;;;;;;;20.58;12.27;;;6.80;99.90;;;;;;4958279;28;20023;-76
2022/05/03 05:20:50;;;;;;;22.45;12.70;;;6.80;99.90;;;;;;4957990;28;20397;-76
2022/05/03 05:23:16;;;;;;;21.80;12.55;;;7.10;99.90;;;;;;4958317;28;20456;-76
2022/05/03 05:25:41;;;;;;;18.85;11.93;;;7.10;99.90;;;;;;4961474;28;20118;-76
2022/05/03 05:28:08;;;;;;;19.92;11.73;;;7.40;99.90;;;;;;4965763;28;20059;-76
2022/05/03 05:30:34;;;;;;;23.33;11.82;;;7.30;99.90;;;;;;4965307;28;20453;-76
2022/05/03 05:33:00;;;;;;;19.35;11.93;;;7.60;99.90;;;;;;4960380;28;20218;-76
2022/05/03 05:35:25;;;;;;;23.58;13.93;;;7.60;99.90;;;;;;4958417;28;20028;-76
2022/05/03 05:37:51;;;;;;;24.15;13.68;;;7.90;99.90;;;;;;4960417;28;20480;-76
2022/05/03 05:40:17;;;;;;;22.50;13.82;;;8.10;99.90;;;;;;4968357;28;20034;-75
2022/05/03 05:42:42;;;;;;;29.70;14.93;;;8.30;99.90;;;;;;4989274;28;20051;-76
2022/05/03 05:45:08;;;;;;;23.70;14.07;;;8.60;99.90;;;;;;4976023;28;20586;-77
2022/05/03 05:47:34;;;;;;;24.98;13.82;;;8.70;99.90;;;;;;4972591;28;20027;-77
2022/05/03 05:50:00;;;;;;;20.45;13.70;;;9.00;99.90;;;;;;4972659;28;20034;-77
2022/05/03 05:55:10;;;;;;;20.90;12.98;;;9.30;99.90;;;;;;4973392;28;20053;-76
2022/05/03 05:57:35;;;;;;;21.30;13.38;;;9.40;99.90;;;;;;4975935;28;20023;-77
2022/05/03 06:00:03;;;;;;;19.17;12.55;;;9.60;99.90;;;;;;4977337;28;20031;-77
2022/05/03 06:02:28;;;;;;;27.48;16.08;;;9.60;99.90;;;;;;4992863;28;20035;-75
2022/05/03 06:04:54;;;;;;;23.67;14.63;;;10.00;99.90;;;;;;4992842;28;20072;-76
2022/05/03 06:07:20;;;;;;;22.75;13.48;;;10.00;99.90;;;;;;4978037;28;20109;-76
2022/05/03 06:09:45;;;;;;;22.33;13.68;;;10.50;99.90;;;;;;4977639;28;20031;-77
2022/05/03 06:12:12;;;;;;;21.38;14.43;;;10.40;99.90;;;;;;4978574;28;20078;-77
2022/05/03 06:14:40;;;;;;;25.63;15.30;;;10.60;99.90;;;;;;4978462;28;20125;-77
2022/05/03 06:17:06;;;;;;;27.48;16.48;;;10.80;99.90;;;;;;4975551;28;20054;-75
2022/05/03 06:19:32;;;;;;;21.33;13.88;;;11.10;99.90;;;;;;4980025;28;20038;-77
2022/05/03 06:21:58;;;;;;;20.02;13.60;;;11.50;99.90;;;;;;4991371;28;20370;-78
2022/05/03 06:24:25;;;;;;;21.90;13.80;;;11.50;99.90;;;;;;4994563;28;20042;-78
2022/05/03 06:26:51;;;;;;;18.95;13.38;;;11.90;99.90;;;;;;4974920;28;20613;-79
2022/05/03 06:29:16;;;;;;;20.58;12.98;;;12.50;99.90;;;;;;4976899;28;20122;-78
2022/05/03 06:31:42;;;;;;;18.50;12.07;;;12.90;99.90;;;;;;4970311;28;20387;-78
2022/05/03 06:34:08;;;;;;;15.35;11.32;;;13.20;99.90;;;;;;4970079;28;20316;-77
2022/05/03 06:36:35;;;;;;;17.17;11.65;;;13.60;99.90;;;;;;4983709;28;20048;-80
2022/05/03 06:39:05;;;;;;;16.88;11.70;;;13.80;99.90;;;;;;4991973;28;20030;-77
2022/05/03 06:41:32;;;;;;;;;;;13.80;99.90;;;;;;4991310;28;20046;-77
2022/05/03 06:43:58;;;;;;;19.67;12.50;;;13.60;99.90;;;;;;4993859;28;20370;-80
2022/05/03 06:46:27;;;;;;;20.17;11.45;;;13.40;99.90;;;;;;4988633;28;20026;-78
2022/05/03 06:48:53;;;;;;;15.25;11.63;;;15.90;99.90;;;;;;4990381;28;20545;-78
2022/05/03 06:51:19;;;;;;;16.77;12.63;;;13.90;99.90;;;;;;4987718;28;20109;-78
2022/05/03 06:53:45;;;;;;;15.52;11.32;;;14.30;99.90;;;;;;4987330;28;20030;-79
2022/05/03 06:56:11;;;;;;;17.27;11.50;;;13.50;99.90;;;;;;4988509;28;20063;-80
2022/05/03 06:58:37;;;;;;;14.00;10.65;;;15.90;99.90;;;;;;4988496;28;20027;-79
2022/05/03 07:01:16;;;;;;;15.15;10.35;;;16.50;99.90;;;;;;5003639;28;20495;-79
2022/05/03 07:03:42;;;;;;;14.48;10.40;;;16.80;99.90;;;;;;4988439;28;20022;-78
2022/05/03 07:06:09;;;;;;;15.68;10.38;;;17.10;99.90;;;;;;5003703;28;20075;-78
2022/05/03 07:08:36;;;;;;;15.95;10.02;;;17.10;99.90;;;;;;4988748;28;20065;-76
2022/05/03 07:11:02;;;;;;;13.85;10.10;;;17.60;99.90;;;;;;4988104;28;20022;-78
2022/05/03 07:13:28;;;;;;;12.00;9.38;;;18.00;99.90;;;;;;4972637;28;20062;-79
2022/05/03 07:15:54;;;;;;;13.23;9.80;;;18.80;99.90;;;;;;4967494;28;20766;-76
2022/05/03 07:23:51;;;;;;;14.90;10.32;;;18.40;99.90;;;;;;4969214;28;20041;-78
2022/05/03 07:26:17;;;;;;;15.30;10.35;;;17.70;99.90;;;;;;4971771;28;20567;-78
2022/05/03 07:28:43;;;;;;;13.80;10.35;;;16.60;99.90;;;;;;4970365;28;20019;-78
2022/05/03 07:31:09;;;;;;;12.48;10.38;;;16.80;99.90;;;;;;4969173;28;20035;-79
2022/05/03 07:33:35;;;;;;;17.92;10.20;;;17.00;99.90;;;;;;4969057;28;20019;-79
2022/05/03 07:36:03;;;;;;;15.55;10.63;;;17.30;99.90;;;;;;4972413;28;20494;-78
2022/05/03 07:38:29;;;;;;;14.88;10.07;;;16.30;99.90;;;;;;4968607;28;20031;-79
2022/05/03 07:40:56;;;;;;;16.88;10.98;;;15.90;99.90;;;;;;4970086;28;20038;-79
2022/05/03 07:43:22;;;;;;;14.35;10.30;;;16.10;99.90;;;;;;4970468;28;20046;-78
2022/05/03 07:45:48;;;;;;;13.30;10.32;;;16.50;99.90;;;;;;4970357;28;20360;-78
2022/05/03 07:48:14;;;;;;;14.02;10.73;;;16.20;99.90;;;;;;4969845;28;20034;-78
2022/05/03 07:50:39;;;;;;;16.20;9.27;;;16.60;99.90;;;;;;4968049;28;20035;-79
2022/05/03 07:53:05;;;;;;;13.57;9.00;;;17.40;99.90;;;;;;4969344;28;20023;-79
2022/05/03 07:55:31;;;;;;;13.00;9.00;;;17.90;99.90;;;;;;4968217;28;20034;-79
2022/05/03 07:57:56;;;;;;;11.38;8.30;;;17.90;99.90;;;;;;4967695;28;20034;-79
2022/05/03 08:00:22;;;;;;;13.70;9.23;;;18.10;99.90;;;;;;4966830;28;20510;-79
2022/05/03 08:02:48;;;;;;;12.57;9.18;;;18.20;99.90;;;;;;4968008;28;20038;-79
2022/05/03 08:05:14;;;;;;;11.73;9.07;;;18.20;99.90;;;;;;4968117;28;20058;-78
2022/05/03 08:07:39;;;;;;;11.80;8.35;;;18.10;99.90;;;;;;4968240;28;20031;-78
2022/05/03 08:10:05;;;;;;;11.02;9.13;;;18.60;99.90;;;;;;4966279;28;20030;-79
2022/05/03 08:12:31;;;;;;;11.77;8.68;;;19.00;99.90;;;;;;4977695;28;20023;-79
2022/05/03 08:14:57;;;;;;;12.73;8.50;;;18.70;99.90;;;;;;4987276;28;20034;-79
2022/05/03 08:17:27;;;;;;;11.18;8.15;;;18.40;99.90;;;;;;5002366;28;20189;-79
2022/05/03 08:19:53;;;;;;;12.55;9.32;;;18.20;99.90;;;;;;4987250;28;20048;-79
2022/05/03 08:22:19;;;;;;;10.30;8.10;;;18.70;99.90;;;;;;4987288;28;20054;-78
2022/05/03 08:24:45;;;;;;;12.10;8.80;;;18.90;99.90;;;;;;4987799;28;20432;-78
2022/05/03 08:27:10;;;;;;;11.10;8.57;;;18.70;99.90;;;;;;4986475;28;20026;-79
2022/05/03 08:29:36;;;;;;;12.55;9.23;;;18.90;99.90;;;;;;4985700;28;20034;-78
2022/05/03 08:32:03;;;;;;;9.90;8.82;;;19.00;99.90;;;;;;4987210;28;20471;-79
2022/05/03 08:34:29;;;;;;;10.35;8.18;;;19.40;99.10;;;;;;4986770;28;20432;-79
2022/05/03 08:42:24;;;;;;;11.48;8.27;;;19.30;97.70;;;;;;4986731;28;20121;-79
2022/05/03 08:44:50;;;;;;;11.88;9.30;;;18.60;99.90;;;;;;4988404;28;20030;-79
2022/05/03 08:47:18;;;;;;;10.52;8.15;;;17.80;99.90;;;;;;4990934;28;20705;-79
2022/05/03 08:50:06;;;;;;;12.88;9.43;;;18.00;99.90;;;;;;4992344;28;20022;-78
2022/05/03 08:52:47;;;;;;;14.32;8.52;;;17.50;99.90;;;;;;4987579;28;20030;-79
2022/05/03 08:55:13;;;;;;;13.90;8.52;;;18.00;99.90;;;;;;4985612;28;20022;-79
2022/05/03 08:57:40;;;;;;;9.68;7.72;;;18.30;99.90;;;;;;4985283;28;20038;-79
2022/05/03 09:00:07;;;;;;;11.05;8.10;;;18.90;99.90;;;;;;4985740;28;20034;-87
2022/05/03 09:02:33;;;;;;;12.30;8.10;;;19.30;99.90;;;;;;4986640;28;20249;-86
2022/05/03 09:05:00;;;;;;;11.75;8.05;;;19.60;98.60;;;;;;4986257;28;20030;-81
2022/05/03 09:07:26;;;;;;;9.98;7.10;;;19.20;99.30;;;;;;4986847;28;20026;-86
2022/05/03 09:09:53;;;;;;;9.05;6.88;;;19.20;99.90;;;;;;4986444;28;20023;-85
2022/05/03 09:12:26;;;;;;;11.80;8.35;;;18.80;99.90;;;;;;4977108;28;20027;-79
2022/05/03 09:14:55;;;;;;;10.43;7.40;;;19.00;99.90;;;;;;4945811;28;20144;-79
2022/05/03 09:17:44;;;;;;;9.25;7.00;;;19.50;99.90;;;;;;4946116;28;20457;-79
2022/05/03 09:25:50;;;;;;;8.32;6.80;;;20.40;83.70;;;;;;4950668;29;20074;-79
2022/05/03 09:28:19;;;;;;;8.18;6.22;;;20.10;88.80;;;;;;4948966;28;20122;-79
2022/05/03 09:30:50;;;;;;;9.90;7.00;;;19.80;99.90;;;;;;4949838;28;20042;-79
2022/05/03 09:33:23;;;;;;;10.05;7.07;;;19.70;91.30;;;;;;4950141;28;20310;-79
2022/05/03 09:35:50;;;;;;;8.30;6.93;;;19.60;94.20;;;;;;4948763;28;20050;-78
2022/05/03 09:38:16;;;;;;;11.65;7.03;;;19.10;99.60;;;;;;4949940;28;20062;-78
2022/05/03 09:40:45;;;;;;;9.32;7.22;;;19.20;99.90;;;;;;4949993;28;20039;-78
2022/05/03 09:43:11;;;;;;;9.60;6.60;;;19.10;99.90;;;;;;4949580;29;20125;-78
2022/05/03 09:45:37;;;;;;;11.07;6.97;;;18.90;99.90;;;;;;4948662;28;20329;-78
2022/05/03 09:48:04;;;;;;;8.50;7.38;;;;;;;;;;4951149;28;20035;-79
2022/05/03 09:50:29;;;;;;;8.80;6.45;;;19.20;98.50;;;;;;4951123;29;20400;-78
2022/05/03 09:52:56;;;;;;;8.25;6.55;;;19.60;99.90;;;;;;4967068;28;20045;-79
2022/05/03 09:55:29;;;;;;;8.95;6.57;;;20.00;91.40;;;;;;4979264;28;20031;-77
2022/05/03 09:57:59;;;;;;;7.35;5.88;;;19.60;87.40;;;;;;4969893;28;20050;-79
2022/05/03 10:00:24;;;;;;;;;;;19.70;90.90;;;;;;4969506;28;20113;-78
2022/05/03 10:02:52;;;;;;;6.47;5.40;;;19.70;99.90;;;;;;4970630;28;20422;-77
2022/05/03 10:05:20;;;;;;;7.10;6.40;;;19.60;99.90;;;;;;4970244;28;20027;-77
2022/05/03 10:07:47;;;;;;;8.52;5.50;;;19.90;99.90;;;;;;4985342;28;20041;-79
2022/05/03 10:10:14;;;;;;;8.38;5.82;;;20.00;99.90;;;;;;4970370;28;20182;-79
2022/05/03 10:12:45;;;;;;;9.98;6.68;;;20.10;99.90;;;;;;4993901;28;20030;-79
2022/05/03 10:15:12;;;;;;;8.95;7.38;;;19.80;92.20;;;;;;4989746;28;20066;-78
2022/05/03 10:20:40;;;;;;;6.90;5.75;;;19.40;91.20;;;;;;4969316;28;20557;-87
2022/05/03 10:23:23;;;;;;;9.40;7.18;;;19.40;95.40;;;;;;4970676;28;20100;-85
2022/05/03 10:25:56;;;;;;;7.78;6.53;;;19.90;97.80;;;;;;4970182;28;20031;-85
2022/05/03 10:28:23;;;;;;;9.25;6.70;;;20.90;73.60;;;;;;4976026;28;20038;-78
2022/05/03 10:31:10;;;;;;;9.77;7.50;;;20.80;81.10;;;;;;4991083;28;20486;-82
2022/05/03 10:33:36;;;;;;;13.90;7.03;;;20.10;74.00;;;;;;4969949;28;20031;-82
2022/05/03 10:36:23;;;;;;;7.47;6.68;;;20.30;80.60;;;;;;4985590;28;20033;-87
2022/05/03 10:38:49;;;;;;;10.88;8.13;;;20.30;79.90;;;;;;4969989;28;20519;-83
2022/05/03 10:41:24;;;;;;;9.82;8.07;;;20.40;84.30;;;;;;4970179;28;20061;-84
2022/05/03 10:43:49;;;;;;;15.65;7.78;;;20.60;82.90;;;;;;4987610;28;20035;-78
2022/05/03 10:46:23;;;;;;;10.35;7.15;;;21.20;75.00;;;;;;4986256;28;20104;-77
2022/05/03 10:49:13;;;;;;;7.07;4.97;;;21.00;68.80;;;;;;4972298;28;20053;-86
2022/05/03 10:51:39;;;;;;;6.43;4.88;;;21.10;59.30;;;;;;4969842;28;20031;-85
2022/05/03 10:54:07;;;;;;;7.85;6.15;;;21.60;59.70;;;;;;4969814;28;20031;-87
2022/05/03 10:56:33;;;;;;;6.38;4.68;;;21.60;61.30;;;;;;4969225;28;20589;-86
2022/05/03 10:59:16;;;;;;;6.30;4.30;;;21.80;58.40;;;;;;4968376;28;20325;-82
2022/05/03 11:01:54;;;;;;;6.10;4.78;;;22.00;59.30;;;;;;4976977;28;20042;-81
2022/05/03 11:04:21;;;;;;;5.40;4.47;;;22.10;58.30;;;;;;4990459;28;20054;-79
2022/05/03 11:06:49;;;;;;;5.70;4.85;;;22.20;59.10;;;;;;4970299;28;20034;-79
2022/05/03 11:09:25;;;;;;;6.03;5.17;;;21.60;60.50;;;;;;4967987;28;20030;-79
2022/05/03 11:11:52;;;;;;;9.75;5.60;;;21.80;58.90;;;;;;4984006;28;20078;-79
2022/05/03 11:14:26;;;;;;;7.72;4.28;;;21.50;58.90;;;;;;4985373;28;20056;-78
2022/05/03 11:17:09;;;;;;;6.72;4.60;;;21.00;58.50;;;;;;4987493;28;20062;-78
2022/05/03 11:19:48;;;;;;;5.28;4.55;;;21.00;58.90;;;;;;4985566;28;20507;-78
2022/05/03 11:22:17;;;;;;;5.22;4.47;;;21.10;58.80;;;;;;4987057;28;20034;-78
2022/05/03 11:24:48;;;;;;;4.78;3.85;;;21.00;58.50;;;;;;4986457;28;20027;-79
2022/05/03 11:27:16;;;;;;;4.22;3.80;;;21.20;60.00;;;;;;4985027;28;20056;-79
2022/05/03 11:29:43;;;;;;;5.28;3.67;;;21.50;58.40;;;;;;4985303;28;20041;-79
2022/05/03 11:32:10;;;;;;;4.20;3.35;;;21.70;57.20;;;;;;4984812;28;20030;-79
2022/05/03 11:34:37;;;;;;;3.25;2.42;;;21.90;54.70;;;;;;4984720;28;20376;-79
2022/05/03 11:37:04;;;;;;;3.75;2.75;;;22.60;55.10;;;;;;4986696;28;20026;-79
2022/05/03 11:39:30;;;;;;;4.45;2.80;;;23.00;54.60;;;;;;4986184;28;20038;-79
2022/05/03 11:41:56;;;;;;;3.58;3.28;;;24.10;52.30;;;;;;4984373;28;20204;-79
2022/05/03 11:44:23;;;;;;;7.13;4.18;;;23.50;51.70;;;;;;4985793;28;20085;-79
2022/05/03 11:46:49;;;;;;;2.80;2.60;;;23.20;52.30;;;;;;4985698;28;20022;-79
2022/05/03 11:49:16;;;;;;;4.20;3.47;;;23.60;55.00;;;;;;4987832;28;20209;-79
2022/05/03 11:57:30;;;;;;;4.10;3.05;;;23.50;52.90;;;;;;4987452;28;20061;-79
2022/05/03 11:59:58;;;;;;;2.95;2.75;;;24.00;50.80;;;;;;4987479;28;20034;-80
2022/05/03 12:02:38;;;;;;;4.50;2.90;;;24.60;49.90;;;;;;4988727;28;20309;-78
2022/05/03 12:05:15;;;;;;;3.20;2.63;;;25.30;50.00;;;;;;4987259;28;20026;-79
2022/05/03 12:07:57;;;;;;;2.60;2.40;;;25.00;49.30;;;;;;4985706;28;20058;-78
2022/05/03 12:10:28;;;;;;;4.13;2.50;;;24.40;50.80;;;;;;4985857;28;20069;-79
2022/05/03 12:13:14;;;;;;;2.97;2.40;;;24.70;51.50;;;;;;4976463;28;20531;-77
2022/05/03 12:15:46;;;;;;;2.25;2.10;;;25.00;49.80;;;;;;4967865;28;20049;-79
2022/05/03 12:18:18;;;;;;;3.15;2.10;;;25.00;47.60;;;;;;4968281;28;20105;-78
2022/05/03 12:20:54;;;;;;;2.78;2.58;;;25.60;49.20;;;;;;4967450;28;20027;-78
2022/05/03 12:23:22;;;;;;;2.38;2.15;;;25.40;48.10;;;;;;4967440;28;20023;-78
2022/05/03 12:25:58;;;;;;;3.53;2.60;;;25.30;47.80;;;;;;4966440;28;20034;-78
2022/05/03 12:28:45;;;;;;;2.50;2.30;;;25.30;47.50;;;;;;4966336;28;20026;-78
2022/05/03 12:31:15;;;;;;;3.60;2.95;;;25.20;47.20;;;;;;4967999;28;20725;-79
2022/05/03 12:33:58;;;;;;;2.40;2.20;;;25.50;46.80;;;;;;4966649;28;20070;-79
2022/05/03 12:36:54;;;;;;;4.78;2.60;;;24.70;47.00;;;;;;4967554;28;20361;-80
2022/05/03 12:39:22;;;;;;;2.92;2.55;;;24.00;48.00;;;;;;4965224;28;20436;-81
2022/05/03 12:42:01;;;;;;;2.85;2.15;;;24.30;49.60;;;;;;4967301;28;20055;-80
2022/05/03 12:44:28;;;;;;;2.15;1.95;;;24.20;48.50;;;;;;4966426;28;20118;-78
2022/05/03 12:47:06;;;;;;;2.17;2.00;;;24.40;47.60;;;;;;4966371;28;20093;-79
2022/05/03 12:49:33;;;;;;;2.78;1.98;;;23.50;46.40;;;;;;4966208;28;20566;-78
2022/05/03 12:51:59;;;;;;;3.30;2.30;;;22.40;49.60;;;;;;4969197;28;20023;-78
2022/05/03 12:54:25;;;;;;;2.78;2.33;;;22.00;51.40;;;;;;4968879;28;20027;-77
2022/05/03 12:59:35;;;;;;;2.63;2.42;;;22.20;52.70;;;;;;4970618;28;20041;-77
2022/05/03 13:02:01;;;;;;;2.38;2.15;;;22.40;50.40;;;;;;4971217;28;20382;-77
2022/05/03 13:04:30;;;;;;;3.08;2.88;;;22.20;51.80;;;;;;4971169;28;20022;-78
2022/05/03 13:07:00;;;;;;;3.40;3.10;;;21.70;57.10;;;;;;4972007;28;20487;-78
2022/05/03 13:09:27;;;;;;;5.72;3.30;;;21.70;58.30;;;;;;4986792;28;20102;-76
2022/05/03 13:11:53;;;;;;;3.10;2.90;;;21.50;57.50;;;;;;4974728;28;20463;-81
2022/05/03 13:14:18;;;;;;;5.68;2.97;;;21.70;57.30;;;;;;4984426;28;20034;-78
2022/05/03 13:16:45;;;;;;;5.13;3.60;;;21.30;58.40;;;;;;4972517;28;20018;-78
2022/05/03 13:19:12;;;;;;;5.43;3.67;;;21.10;58.60;;;;;;4976469;28;20489;-78
2022/05/03 13:21:43;;;;;;;4.97;3.92;;;21.20;58.90;;;;;;4972529;28;20214;-80
2022/05/03 13:24:09;;;;;;;4.32;3.72;;;21.10;59.40;;;;;;4971190;28;20038;-77
2022/05/03 13:26:36;;;;;;;4.85;3.17;;;21.60;57.30;;;;;;4970738;28;20027;-81
2022/05/03 13:29:08;;;;;;;3.67;3.38;;;21.60;57.80;;;;;;4973435;28;20027;-81
2022/05/03 13:31:35;;;;;;;3.80;2.83;;;22.00;57.30;;;;;;4971046;28;20361;-80
2022/05/03 13:34:00;;;;;;;3.80;3.50;;;22.60;55.00;;;;;;4971323;28;20150;-79
2022/05/03 13:41:55;;;;;;;4.05;3.00;;;23.40;56.00;;;;;;4970948;28;20114;-85